Time;durP1;ratioP1;P1;durP2;ratioP2;P2;SDS_P1;SDS_P2;PMS_P1;PMS_P2;Temp;Humidity;BMP_temperature;BMP_pressure;BME280_temperature;BME280_humidity;BME280_pressure;Samples;Min_cycle;Max_cycle;Signal;HPM_P1;HPM_P2
2022/07/28 00:00:57;;;;;;;3.73;2.30;;;21.20;59.60;;;;;;5012487;28;20456;-85
2022/07/28 00:03:24;;;;;;;5.90;2.70;;;21.10;59.90;;;;;;5016002;28;20456;-85
2022/07/28 00:05:50;;;;;;;2.73;1.90;;;21.00;60.30;;;;;;5004749;28;20478;-85
2022/07/28 00:08:17;;;;;;;6.07;2.50;;;21.00;60.60;;;;;;4998476;28;20451;-86
2022/07/28 00:10:44;;;;;;;5.83;2.60;;;20.90;60.70;;;;;;4999807;28;20455;-85
2022/07/28 00:13:11;;;;;;;5.20;2.40;;;20.90;60.90;;;;;;5000702;28;20451;-85
2022/07/28 00:15:37;;;;;;;4.70;2.33;;;20.90;60.90;;;;;;5000832;28;20440;-85
2022/07/28 00:18:05;;;;;;;5.00;2.20;;;20.90;61.00;;;;;;4997301;28;20450;-85
2022/07/28 00:20:32;;;;;;;3.20;2.27;;;20.80;60.90;;;;;;4997691;28;20443;-85
2022/07/28 00:22:59;;;;;;;5.63;2.40;;;20.80;61.10;;;;;;4998585;28;20455;-86
2022/07/28 00:25:26;;;;;;;6.60;2.50;;;20.70;61.00;;;;;;4998172;28;20454;-85
2022/07/28 00:27:53;;;;;;;3.90;2.80;;;20.70;60.80;;;;;;4998347;28;20873;-86
2022/07/28 00:30:20;;;;;;;4.50;2.20;;;20.70;60.80;;;;;;4997343;28;20458;-85
2022/07/28 00:32:46;;;;;;;3.93;2.40;;;20.70;61.00;;;;;;4997631;28;20518;-86
2022/07/28 00:35:14;;;;;;;3.77;2.83;;;20.70;61.30;;;;;;4997457;28;20448;-86
2022/07/28 00:37:41;;;;;;;3.97;2.10;;;20.60;61.30;;;;;;4997614;28;20463;-85
2022/07/28 00:40:09;;;;;;;3.17;2.10;;;20.60;61.60;;;;;;4999503;28;20448;-86
2022/07/28 00:42:36;;;;;;;4.47;2.80;;;20.60;61.80;;;;;;4999137;28;20439;-86
2022/07/28 00:45:03;;;;;;;5.53;3.30;;;20.50;61.90;;;;;;4998936;28;20493;-86
2022/07/28 00:47:30;;;;;;;3.10;2.00;;;20.50;62.20;;;;;;5007129;28;20463;-85
2022/07/28 00:49:57;;;;;;;4.33;2.30;;;20.50;62.30;;;;;;5013313;28;20431;-85
2022/07/28 00:52:25;;;;;;;5.70;2.73;;;20.40;62.50;;;;;;5006224;28;20970;-86
2022/07/28 00:54:52;;;;;;;6.93;2.77;;;20.40;62.80;;;;;;5006367;23;20869;-81
2022/07/28 00:57:20;;;;;;;5.27;2.23;;;20.30;63.10;;;;;;4996069;28;20878;-81
2022/07/28 00:59:47;;;;;;;4.10;2.77;;;20.20;63.30;;;;;;5002435;28;20833;-81
2022/07/28 01:02:14;;;;;;;4.50;2.13;;;20.20;63.70;;;;;;5001547;28;20439;-81
2022/07/28 01:04:41;;;;;;;3.53;2.10;;;20.20;64.00;;;;;;4998446;28;20498;-81
2022/07/28 01:07:19;;;;;;;4.03;2.40;;;20.10;64.20;;;;;;5000260;28;20450;-81
2022/07/28 01:09:53;;;;;;;5.30;2.63;;;20.10;64.40;;;;;;5000815;28;20848;-81
2022/07/28 01:12:44;;;;;;;2.93;2.10;;;20.10;64.60;;;;;;5001177;28;20454;-81
2022/07/28 01:15:19;;;;;;;3.90;2.60;;;20.00;64.90;;;;;;5000551;28;20996;-81
2022/07/28 01:17:54;;;;;;;4.87;2.30;;;20.00;64.90;;;;;;5001715;28;20826;-81
2022/07/28 01:20:25;;;;;;;5.43;2.53;;;20.00;64.80;;;;;;4999486;28;20451;-81
2022/07/28 01:23:06;;;;;;;5.63;2.67;;;20.00;64.70;;;;;;4996322;28;20462;-81
2022/07/28 01:25:49;;;;;;;3.53;2.63;;;19.90;64.90;;;;;;4996198;28;20514;-81
2022/07/28 01:28:26;;;;;;;3.03;2.70;;;20.00;65.30;;;;;;4999390;28;20452;-81
2022/07/28 01:30:57;;;;;;;6.87;3.03;;;20.00;65.50;;;;;;5005788;28;20458;-81
2022/07/28 01:33:28;;;;;;;6.20;2.53;;;19.90;65.60;;;;;;5005074;28;20474;-81
2022/07/28 01:36:02;;;;;;;7.70;2.77;;;19.80;65.80;;;;;;5004628;28;20443;-81
2022/07/28 01:38:32;;;;;;;4.27;2.67;;;19.70;65.70;;;;;;5004399;28;20517;-81
2022/07/28 01:41:01;;;;;;;2.97;2.20;;;19.70;66.00;;;;;;5004130;28;20454;-81
2022/07/28 01:43:31;;;;;;;3.40;2.80;;;19.70;66.10;;;;;;5008104;28;20447;-81
2022/07/28 01:46:01;;;;;;;4.80;3.70;;;19.60;66.10;;;;;;5016263;28;20479;-80
2022/07/28 01:48:29;;;;;;;4.10;2.50;;;19.60;66.40;;;;;;5004106;28;20455;-81
2022/07/28 01:50:57;;;;;;;5.40;2.90;;;19.60;66.50;;;;;;5003613;28;20967;-81
2022/07/28 01:53:26;;;;;;;5.93;2.73;;;19.50;67.10;;;;;;5004207;28;20525;-81
2022/07/28 01:55:53;;;;;;;6.23;3.50;;;19.40;67.10;;;;;;5003678;28;20448;-81
2022/07/28 01:58:22;;;;;;;4.60;2.40;;;19.50;67.40;;;;;;5004747;28;20517;-80
2022/07/28 02:00:51;;;;;;;2.83;2.43;;;19.40;67.30;;;;;;5003808;28;20455;-81
2022/07/28 02:03:21;;;;;;;7.00;3.07;;;19.40;67.40;;;;;;5010955;28;20459;-81
2022/07/28 02:05:50;;;;;;;6.80;2.70;;;19.40;67.70;;;;;;5013163;28;20490;-81
2022/07/28 02:08:20;;;;;;;4.43;2.67;;;19.40;67.80;;;;;;5006949;28;20455;-81
2022/07/28 02:11:38;;;;;;;2.70;2.13;;;19.40;67.80;;;;;;5006637;28;20471;-81
2022/07/28 02:13:36;;;;;;;6.03;3.40;;;19.40;67.80;;;;;;5004469;28;20510;-81
2022/07/28 02:16:08;;;;;;;4.63;3.13;;;19.40;68.00;;;;;;5003610;28;20450;-81
2022/07/28 02:18:38;;;;;;;2.80;2.30;;;19.40;68.10;;;;;;5004398;28;20498;-81
2022/07/28 02:21:06;;;;;;;6.00;2.73;;;19.30;68.10;;;;;;5003308;28;20443;-81
2022/07/28 02:23:34;;;;;;;3.17;2.37;;;19.30;68.20;;;;;;5004454;28;20968;-81
2022/07/28 02:26:07;;;;;;;6.60;2.80;;;19.30;68.60;;;;;;5003608;28;20487;-81
2022/07/28 02:28:34;;;;;;;5.03;2.40;;;19.20;68.60;;;;;;5003418;28;20451;-81
2022/07/28 02:31:06;;;;;;;4.90;2.33;;;19.30;69.10;;;;;;5004400;28;20455;-81
2022/07/28 02:33:36;;;;;;;6.80;2.97;;;19.20;69.20;;;;;;5017320;28;20466;-80
2022/07/28 02:36:07;;;;;;;3.37;2.53;;;19.20;69.50;;;;;;5014991;28;20443;-80
2022/07/28 02:38:41;;;;;;;5.40;2.53;;;19.20;69.40;;;;;;5007477;28;20461;-81
2022/07/28 02:41:15;;;;;;;4.50;2.97;;;19.20;69.40;;;;;;5005664;28;20475;-80
2022/07/28 02:43:46;;;;;;;4.13;2.40;;;19.20;69.40;;;;;;5007229;28;20471;-80
2022/07/28 02:46:16;;;;;;;6.70;2.53;;;19.10;69.60;;;;;;5005582;28;20559;-81
2022/07/28 02:48:47;;;;;;;5.47;2.50;;;19.10;69.90;;;;;;5011343;28;20436;-80
2022/07/28 02:51:14;;;;;;;3.43;2.20;;;19.10;70.10;;;;;;5018163;28;20440;-81
2022/07/28 02:53:42;;;;;;;3.50;2.63;;;19.10;70.20;;;;;;5013121;28;20482;-80
2022/07/28 02:56:10;;;;;;;2.93;2.40;;;19.00;70.40;;;;;;5006876;28;20443;-80
2022/07/28 02:58:38;;;;;;;6.20;2.30;;;19.00;70.60;;;;;;5007645;28;20443;-81
2022/07/28 03:01:05;;;;;;;3.70;2.70;;;19.00;70.60;;;;;;5005312;28;20951;-81
2022/07/28 03:03:34;;;;;;;4.03;2.50;;;18.90;70.60;;;;;;5005093;28;20829;-80
2022/07/28 03:06:03;;;;;;;5.40;2.73;;;18.90;70.70;;;;;;5004910;28;20482;-81
2022/07/28 03:08:30;;;;;;;4.53;2.90;;;18.90;71.00;;;;;;5004389;28;20451;-81
2022/07/28 03:11:10;;;;;;;6.70;2.53;;;18.90;71.10;;;;;;5005112;28;20451;-81
2022/07/28 03:13:37;;;;;;;8.20;2.60;;;18.90;71.40;;;;;;5004867;28;20466;-81
2022/07/28 03:16:04;;;;;;;6.00;3.60;;;18.80;71.40;;;;;;5003356;28;20444;-81
2022/07/28 03:18:31;;;;;;;5.80;3.50;;;18.80;71.50;;;;;;5003423;28;20451;-81
2022/07/28 03:20:58;;;;;;;5.73;2.57;;;18.80;71.80;;;;;;5003234;28;20462;-80
2022/07/28 03:23:32;;;;;;;4.00;2.80;;;18.80;71.70;;;;;;5003007;28;20499;-80
2022/07/28 03:26:05;;;;;;;5.60;3.17;;;18.80;71.70;;;;;;5003087;28;20856;-80
2022/07/28 03:28:33;;;;;;;3.70;2.87;;;18.80;71.90;;;;;;5001332;28;20444;-81
2022/07/28 03:31:05;;;;;;;3.67;2.43;;;18.80;72.10;;;;;;5001125;28;20453;-81
2022/07/28 03:33:32;;;;;;;4.90;2.90;;;18.80;72.30;;;;;;4993904;28;20478;-81
2022/07/28 03:36:05;;;;;;;4.20;2.27;;;18.80;72.50;;;;;;5000086;28;20449;-81
2022/07/28 03:38:37;;;;;;;8.03;3.30;;;18.70;72.80;;;;;;5011929;28;20448;-81
2022/07/28 03:41:05;;;;;;;5.33;3.23;;;18.70;73.00;;;;;;5001956;28;20440;-81
2022/07/28 03:43:33;;;;;;;3.80;2.30;;;18.60;72.90;;;;;;5001408;28;20518;-81
2022/07/28 03:46:00;;;;;;;5.70;2.80;;;18.60;73.80;;;;;;5001500;28;20642;-81
2022/07/28 03:48:29;;;;;;;3.93;3.00;;;18.60;73.90;;;;;;5002565;28;20869;-81
2022/07/28 03:50:55;;;;;;;6.83;2.83;;;18.60;74.10;;;;;;5003606;28;20451;-81
2022/07/28 03:53:25;;;;;;;3.47;3.13;;;18.60;74.40;;;;;;5001811;28;20487;-81
2022/07/28 03:55:53;;;;;;;4.13;3.00;;;18.60;74.30;;;;;;5002047;28;20447;-81
2022/07/28 03:58:21;;;;;;;5.30;2.70;;;18.50;74.40;;;;;;5001921;28;20860;-81
2022/07/28 04:00:49;;;;;;;6.10;3.50;;;18.50;74.90;;;;;;5002244;28;20506;-81
2022/07/28 04:03:16;;;;;;;7.03;3.07;;;18.50;75.50;;;;;;5000487;28;20531;-81
2022/07/28 04:05:43;;;;;;;5.17;2.93;;;18.40;75.50;;;;;;4998910;28;21133;-81
2022/07/28 04:08:10;;;;;;;3.30;2.90;;;18.40;75.70;;;;;;4999098;28;20530;-81
2022/07/28 04:10:36;;;;;;;4.37;3.97;;;18.40;76.00;;;;;;4999247;28;20505;-81
2022/07/28 04:13:04;;;;;;;3.67;2.70;;;18.40;76.10;;;;;;4998116;28;20450;-82
2022/07/28 04:15:31;;;;;;;5.53;2.40;;;18.50;76.20;;;;;;4997049;28;20439;-81
2022/07/28 04:17:59;;;;;;;4.23;3.00;;;18.40;76.40;;;;;;4981764;28;20453;-81
2022/07/28 04:20:28;;;;;;;5.50;2.63;;;18.50;76.00;;;;;;4982212;28;20444;-81
2022/07/28 04:22:55;;;;;;;4.30;3.00;;;18.50;75.60;;;;;;4982588;28;20457;-81
2022/07/28 04:25:24;;;;;;;5.60;3.00;;;18.50;75.30;;;;;;4981257;28;20491;-81
2022/07/28 04:27:51;;;;;;;4.33;2.90;;;18.50;75.20;;;;;;4980418;28;20806;-81
2022/07/28 04:30:23;;;;;;;3.53;2.50;;;18.60;75.30;;;;;;4981687;28;20456;-81
2022/07/28 04:32:51;;;;;;;4.53;3.00;;;18.60;75.20;;;;;;4991406;28;20923;-79
2022/07/28 04:35:19;;;;;;;4.53;2.90;;;18.60;75.30;;;;;;4989864;28;20467;-80
2022/07/28 04:37:47;;;;;;;5.67;2.80;;;18.60;75.20;;;;;;4976714;28;20543;-81
2022/07/28 04:40:14;;;;;;;3.77;3.10;;;18.60;75.10;;;;;;4974291;28;20459;-81
2022/07/28 04:42:41;;;;;;;6.17;4.03;;;18.70;75.00;;;;;;4974356;28;20459;-80
2022/07/28 04:45:10;;;;;;;7.53;4.40;;;18.70;74.80;;;;;;4973752;28;20499;-81
2022/07/28 04:47:38;;;;;;;7.70;3.97;;;18.80;74.80;;;;;;4975050;28;20452;-80
2022/07/28 04:50:06;;;;;;;7.70;3.10;;;18.80;74.60;;;;;;4986135;28;20460;-80
2022/07/28 04:52:33;;;;;;;10.00;4.57;;;18.80;74.50;;;;;;4989635;28;20444;-80
2022/07/28 04:55:00;;;;;;;6.93;3.33;;;18.90;74.60;;;;;;4980980;28;20472;-80
2022/07/28 04:57:28;;;;;;;3.97;3.00;;;19.00;74.50;;;;;;4993335;28;20460;-80
2022/07/28 04:59:55;;;;;;;5.00;2.90;;;19.00;74.20;;;;;;4992882;28;20460;-80
2022/07/28 05:02:22;;;;;;;5.10;3.37;;;19.00;74.10;;;;;;4985180;28;20445;-80
2022/07/28 05:04:50;;;;;;;6.70;3.27;;;19.10;74.20;;;;;;4981103;28;20472;-82
2022/07/28 05:07:16;;;;;;;3.93;2.60;;;19.10;74.10;;;;;;4980701;28;20456;-82
2022/07/28 05:09:43;;;;;;;5.07;3.33;;;19.10;74.30;;;;;;4982350;28;20461;-83
2022/07/28 05:12:10;;;;;;;5.27;3.00;;;19.10;74.40;;;;;;4982240;28;20476;-82
2022/07/28 05:14:37;;;;;;;3.53;2.73;;;19.20;74.30;;;;;;4989844;28;20456;-83
2022/07/28 05:17:04;;;;;;;9.03;2.70;;;19.30;73.80;;;;;;4997492;28;20495;-84
2022/07/28 05:19:30;;;;;;;5.03;2.70;;;19.40;73.50;;;;;;4986733;28;20440;-81
2022/07/28 05:21:58;;;;;;;6.97;3.00;;;19.60;73.40;;;;;;4981459;28;20851;-79
2022/07/28 05:24:25;;;;;;;4.83;2.83;;;19.90;72.60;;;;;;4981022;28;20472;-81
2022/07/28 05:26:52;;;;;;;5.57;2.93;;;20.30;71.00;;;;;;4980887;28;20488;-80
2022/07/28 05:29:19;;;;;;;2.90;2.60;;;20.50;70.00;;;;;;4982755;28;20584;-81
2022/07/28 05:31:45;;;;;;;3.07;2.53;;;20.90;69.50;;;;;;4983023;28;20455;-81
2022/07/28 05:34:12;;;;;;;6.00;2.63;;;21.40;67.50;;;;;;4986728;28;20849;-81
2022/07/28 05:36:39;;;;;;;6.43;4.60;;;22.10;65.50;;;;;;4982190;28;20543;-81
2022/07/28 05:39:07;;;;;;;6.30;3.30;;;22.70;63.20;;;;;;4981007;28;20451;-81
2022/07/28 05:41:34;;;;;;;5.80;3.07;;;23.20;61.60;;;;;;4981125;28;20456;-80
2022/07/28 05:44:00;;;;;;;5.17;3.30;;;23.30;59.90;;;;;;4983502;28;20468;-81
2022/07/28 05:46:27;;;;;;;4.93;3.60;;;23.30;59.90;;;;;;4979436;28;20575;-81
2022/07/28 05:48:54;;;;;;;4.20;2.77;;;23.30;59.90;;;;;;4973686;28;20455;-81
2022/07/28 05:51:21;;;;;;;6.37;2.77;;;23.10;60.60;;;;;;4976795;28;20455;-80
2022/07/28 05:53:47;;;;;;;5.03;3.30;;;23.30;60.00;;;;;;4980180;28;20475;-80
2022/07/28 05:56:16;;;;;;;6.70;5.10;;;23.00;60.10;;;;;;4980682;28;20452;-81
2022/07/28 05:58:42;;;;;;;7.07;3.50;;;22.90;60.90;;;;;;4981557;28;20452;-81
2022/07/28 06:01:09;;;;;;;5.57;3.97;;;23.40;60.90;;;;;;4982641;28;20456;-81
2022/07/28 06:03:36;;;;;;;5.03;3.63;;;24.10;59.40;;;;;;4981932;28;21013;-81
2022/07/28 06:06:04;;;;;;;6.77;3.10;;;24.90;58.10;;;;;;4981536;28;20484;-81
2022/07/28 06:08:31;;;;;;;4.43;3.60;;;25.50;56.70;;;;;;4981737;28;20519;-82
2022/07/28 06:11:07;;;;;;;5.57;3.50;;;26.00;55.20;;;;;;4983821;28;20471;-82
2022/07/28 06:13:36;;;;;;;18.43;3.60;;;26.60;54.40;;;;;;4984916;28;20484;-81
2022/07/28 06:16:03;;;;;;;4.30;2.87;;;26.80;53.20;;;;;;4995521;28;20454;-82
2022/07/28 06:18:30;;;;;;;6.90;3.73;;;26.70;53.30;;;;;;4995775;28;20447;-81
2022/07/28 06:20:57;;;;;;;3.43;2.70;;;27.10;53.20;;;;;;4996274;28;20457;-81
2022/07/28 06:23:24;;;;;;;5.03;3.83;;;27.50;52.40;;;;;;4996324;28;20467;-81
2022/07/28 06:25:52;;;;;;;5.00;4.50;;;27.90;52.10;;;;;;5008014;28;20881;-82
2022/07/28 06:28:19;;;;;;;4.63;3.37;;;28.00;51.20;;;;;;5010235;28;20454;-81
2022/07/28 06:30:48;;;;;;;5.00;3.97;;;28.50;50.20;;;;;;4997874;28;20444;-82
2022/07/28 06:33:15;;;;;;;6.50;3.63;;;28.50;49.70;;;;;;4996452;28;20472;-82
2022/07/28 06:35:42;;;;;;;4.93;4.27;;;28.10;50.30;;;;;;4996794;28;20447;-83
2022/07/28 06:38:09;;;;;;;6.83;3.87;;;27.50;51.70;;;;;;5000654;28;20440;-82
2022/07/28 06:40:36;;;;;;;5.07;4.10;;;27.60;52.20;;;;;;4996150;28;21855;-82
2022/07/28 06:43:03;;;;;;;6.10;4.13;;;28.10;51.30;;;;;;4997866;28;20452;-82
2022/07/28 06:45:29;;;;;;;5.20;4.33;;;28.20;51.30;;;;;;5003128;28;20445;-82
2022/07/28 06:47:58;;;;;;;5.00;3.97;;;29.10;50.20;;;;;;4998638;28;20885;-82
2022/07/28 06:50:24;;;;;;;5.20;4.80;;;28.40;50.20;;;;;;4996143;28;20438;-82
2022/07/28 06:52:51;;;;;;;5.00;4.27;;;28.60;50.40;;;;;;4997660;28;20449;-82
2022/07/28 06:55:18;;;;;;;7.43;5.17;;;29.20;49.90;;;;;;4995943;28;20446;-82
2022/07/28 06:57:45;;;;;;;4.87;4.37;;;29.20;49.00;;;;;;5007968;28;20437;-81
2022/07/28 07:00:13;;;;;;;6.53;4.07;;;28.80;49.60;;;;;;5016993;28;20477;-80
2022/07/28 07:02:40;;;;;;;6.10;5.20;;;29.00;49.90;;;;;;5010070;28;20428;-81
2022/07/28 07:05:10;;;;;;;5.17;4.67;;;29.20;49.20;;;;;;5001442;28;20463;-81
2022/07/28 07:07:36;;;;;;;4.50;4.10;;;28.30;50.50;;;;;;4997485;28;20941;-82
2022/07/28 07:10:04;;;;;;;6.63;4.97;;;28.50;50.80;;;;;;4996711;28;20445;-81
2022/07/28 07:12:33;;;;;;;7.07;4.50;;;28.70;50.60;;;;;;4994467;28;20500;-81
2022/07/28 07:14:59;;;;;;;7.77;4.80;;;28.90;50.10;;;;;;4994134;28;20501;-81
2022/07/28 07:17:26;;;;;;;6.63;5.23;;;29.20;49.80;;;;;;5008434;28;20450;-81
2022/07/28 07:19:53;;;;;;;6.30;5.70;;;28.50;51.00;;;;;;5011972;28;20460;-81
2022/07/28 07:22:21;;;;;;;7.57;6.30;;;28.20;51.70;;;;;;5011739;28;20529;-81
2022/07/28 07:24:48;;;;;;;5.87;5.27;;;28.70;51.60;;;;;;5005881;28;20466;-80
2022/07/28 07:27:14;;;;;;;8.43;5.40;;;29.30;50.30;;;;;;5015515;28;20492;-81
2022/07/28 07:29:41;;;;;;;5.30;4.80;;;29.10;50.40;;;;;;5003868;28;20443;-82
2022/07/28 07:32:08;;;;;;;5.40;4.90;;;29.20;50.40;;;;;;5007936;28;20435;-82
2022/07/28 07:34:34;;;;;;;5.90;5.40;;;29.20;50.10;;;;;;5009559;28;20466;-82
2022/07/28 07:37:01;;;;;;;6.03;4.80;;;29.70;49.50;;;;;;5000699;28;20461;-82
2022/07/28 07:39:29;;;;;;;5.73;5.23;;;30.10;48.60;;;;;;4996993;28;20827;-82
2022/07/28 07:41:56;;;;;;;5.83;5.23;;;30.60;48.30;;;;;;4996140;28;20444;-82
2022/07/28 07:44:23;;;;;;;7.00;5.20;;;31.80;46.90;;;;;;4994711;28;20471;-82
2022/07/28 07:46:49;;;;;;;5.70;5.17;;;32.10;45.70;;;;;;5002241;28;21012;-83
2022/07/28 07:49:17;;;;;;;7.13;6.53;;;32.50;45.50;;;;;;5008717;28;20443;-81
2022/07/28 07:51:44;;;;;;;9.00;6.33;;;32.10;45.50;;;;;;5004778;28;20519;-82
2022/07/28 07:54:10;;;;;;;6.60;6.10;;;31.40;46.30;;;;;;4998495;28;20475;-81
2022/07/28 07:56:38;;;;;;;7.23;5.27;;;30.30;49.00;;;;;;4995721;28;20441;-84
2022/07/28 07:59:05;;;;;;;5.60;5.20;;;30.60;48.90;;;;;;4994741;28;20503;-81
2022/07/28 08:01:33;;;;;;;7.23;5.97;;;31.40;47.70;;;;;;4994519;28;20801;-82
2022/07/28 08:03:59;;;;;;;7.67;5.60;;;32.10;46.70;;;;;;4993150;28;20467;-80
2022/07/28 08:06:29;;;;;;;6.37;5.73;;;32.50;46.00;;;;;;4988626;23;20493;-80
2022/07/28 08:08:56;;;;;;;6.03;5.10;;;32.40;45.50;;;;;;4978182;28;20449;-79
2022/07/28 08:11:22;;;;;;;11.13;6.87;;;32.60;45.30;;;;;;4979185;28;20457;-79
2022/07/28 08:13:50;;;;;;;6.83;6.20;;;33.20;44.50;;;;;;4975024;28;20457;-88
2022/07/28 08:16:17;;;;;;;6.53;5.93;;;33.40;44.30;;;;;;4975203;28;20469;-87
2022/07/28 08:18:44;;;;;;;6.33;5.40;;;34.10;43.40;;;;;;4974954;28;20540;-86
2022/07/28 08:21:12;;;;;;;6.13;5.67;;;34.00;43.30;;;;;;4975180;28;20475;-86
2022/07/28 08:23:38;;;;;;;7.27;5.00;;;34.40;43.00;;;;;;4973825;28;20944;-87
2022/07/28 08:26:05;;;;;;;5.57;5.13;;;35.40;42.00;;;;;;4983701;28;20536;-88
2022/07/28 08:28:32;;;;;;;6.53;5.97;;;35.60;40.70;;;;;;4997080;28;20442;-89
2022/07/28 08:31:00;;;;;;;6.43;5.80;;;35.10;41.70;;;;;;4996764;28;20461;-87
2022/07/28 08:33:27;;;;;;;8.10;7.30;;;34.80;41.90;;;;;;4986768;28;20462;-87
2022/07/28 08:35:53;;;;;;;12.67;7.73;;;33.30;44.00;;;;;;4977393;28;20884;-86
2022/07/28 08:38:20;;;;;;;6.67;6.07;;;32.90;45.40;;;;;;4976193;28;20466;-87
2022/07/28 08:40:49;;;;;;;6.53;5.93;;;33.50;44.60;;;;;;4974930;28;20438;-86
2022/07/28 08:43:28;;;;;;;6.67;6.17;;;33.50;43.60;;;;;;4974893;28;20443;-86
2022/07/28 08:45:55;;;;;;;6.53;5.93;;;33.90;43.90;;;;;;4976243;28;20471;-86
2022/07/28 08:48:23;;;;;;;33.47;11.27;;;35.10;42.70;;;;;;4975690;28;20954;-87
2022/07/28 08:50:51;;;;;;;6.17;5.67;;;35.50;42.10;;;;;;4975437;28;20435;-87
2022/07/28 08:53:20;;;;;;;6.67;6.07;;;35.50;41.50;;;;;;4975332;28;20450;-86
2022/07/28 08:55:48;;;;;;;7.00;6.10;;;35.60;40.90;;;;;;4985301;28;20458;-86
2022/07/28 08:58:17;;;;;;;6.90;5.90;;;35.70;41.10;;;;;;4979342;28;20675;-86
2022/07/28 09:00:44;;;;;;;6.73;6.03;;;35.60;40.70;;;;;;4979065;28;20485;-88
2022/07/28 09:03:12;;;;;;;6.63;6.13;;;35.50;41.10;;;;;;4985554;28;20454;-88
2022/07/28 09:05:42;;;;;;;7.13;6.50;;;35.80;40.90;;;;;;4986211;28;20839;-87
2022/07/28 09:08:11;;;;;;;7.30;6.70;;;36.70;39.10;;;;;;4975562;28;20487;-87
2022/07/28 09:10:38;;;;;;;6.93;6.30;;;35.30;41.30;;;;;;4974309;28;20446;-87
2022/07/28 09:13:04;;;;;;;7.00;6.40;;;35.80;41.00;;;;;;4973795;28;20461;-87
2022/07/28 09:15:33;;;;;;;6.57;5.50;;;35.30;41.60;;;;;;4978026;28;20479;-86
2022/07/28 09:18:00;;;;;;;6.20;5.70;;;35.80;41.00;;;;;;4977530;28;20455;-87
2022/07/28 09:20:29;;;;;;;6.57;6.07;;;36.90;40.60;;;;;;4976380;28;20464;-87
2022/07/28 09:22:59;;;;;;;6.63;6.03;;;37.30;39.20;;;;;;4976585;28;20427;-87
2022/07/28 09:25:26;;;;;;;6.63;6.03;;;37.30;38.60;;;;;;4977670;28;20458;-87
2022/07/28 09:27:53;;;;;;;6.63;6.03;;;35.80;39.90;;;;;;4979593;28;20479;-86
2022/07/28 09:30:31;;;;;;;7.47;6.73;;;34.00;42.60;;;;;;4986146;28;20460;-88
2022/07/28 09:33:16;;;;;;;8.23;6.40;;;33.80;44.00;;;;;;4984936;28;20562;-87
2022/07/28 09:35:47;;;;;;;6.60;6.00;;;33.80;44.20;;;;;;4977903;28;20474;-87
2022/07/28 09:38:15;;;;;;;7.13;6.53;;;34.00;44.10;;;;;;4978582;28;20443;-87
2022/07/28 09:40:44;;;;;;;6.00;5.50;;;34.40;42.30;;;;;;4979375;28;20453;-87
2022/07/28 09:43:11;;;;;;;6.27;5.63;;;33.30;44.00;;;;;;4978808;28;20494;-87
2022/07/28 09:45:37;;;;;;;6.00;5.50;;;32.90;45.10;;;;;;4978806;28;20866;-86
2022/07/28 09:48:13;;;;;;;5.70;5.30;;;34.10;44.40;;;;;;4999190;28;20474;-88
2022/07/28 09:50:41;;;;;;;5.90;4.97;;;36.50;41.00;;;;;;4987102;28;20453;-86
2022/07/28 09:53:26;;;;;;;5.70;5.20;;;37.70;38.20;;;;;;4977228;28;20438;-87
2022/07/28 09:55:58;;;;;;;6.63;5.73;;;37.60;38.20;;;;;;4977393;28;20481;-86
2022/07/28 09:58:25;;;;;;;5.43;5.03;;;37.40;38.00;;;;;;4976707;28;20461;-87
2022/07/28 10:01:03;;;;;;;6.20;5.70;;;36.90;39.30;;;;;;4977036;28;20450;-85
2022/07/28 10:03:30;;;;;;;5.70;5.20;;;37.60;38.80;;;;;;4979512;28;20483;-87
2022/07/28 10:05:58;;;;;;;5.40;4.97;;;38.90;37.00;;;;;;4993158;28;20478;-86
2022/07/28 10:08:43;;;;;;;6.20;5.10;;;40.10;35.60;;;;;;4998632;28;21111;-87
2022/07/28 10:11:11;;;;;;;7.10;5.10;;;39.60;35.10;;;;;;4993930;28;20932;-85
2022/07/28 10:13:55;;;;;;;4.93;4.53;;;39.70;35.30;;;;;;4980802;28;20448;-86
2022/07/28 10:16:25;;;;;;;5.20;4.80;;;39.80;35.10;;;;;;4976939;28;20483;-86
2022/07/28 10:18:52;;;;;;;5.53;5.13;;;38.40;35.80;;;;;;4994711;28;20526;-88
2022/07/28 10:21:20;;;;;;;6.23;5.73;;;38.70;36.40;;;;;;4992428;28;20460;-87
2022/07/28 10:23:50;;;;;;;5.47;5.00;;;38.40;36.10;;;;;;4979971;28;20448;-86
2022/07/28 10:26:20;;;;;;;6.23;5.73;;;37.70;36.60;;;;;;4978882;28;20480;-86
2022/07/28 10:28:50;;;;;;;6.47;5.20;;;37.20;37.90;;;;;;4976344;28;20442;-86
2022/07/28 10:31:28;;;;;;;5.20;4.80;;;36.90;38.00;;;;;;4976412;28;20446;-87
2022/07/28 10:33:57;;;;;;;6.87;5.90;;;37.90;37.00;;;;;;4976171;28;20435;-86
2022/07/28 10:36:25;;;;;;;6.57;5.80;;;38.60;36.30;;;;;;4975917;28;20857;-86
2022/07/28 10:39:00;;;;;;;6.13;5.33;;;37.90;36.70;;;;;;4983369;28;20477;-89
2022/07/28 10:41:33;;;;;;;5.60;5.10;;;39.00;35.60;;;;;;4993623;28;20447;-87
2022/07/28 10:44:02;;;;;;;6.07;5.67;;;39.30;35.30;;;;;;4985501;28;20451;-86
2022/07/28 10:46:31;;;;;;;6.60;6.10;;;39.80;34.10;;;;;;4985874;28;20464;-86
2022/07/28 10:48:58;;;;;;;5.47;5.07;;;39.90;33.80;;;;;;4987571;28;20448;-87
2022/07/28 10:51:25;;;;;;;5.47;5.00;;;39.30;35.10;;;;;;4991252;28;20519;-86
2022/07/28 10:53:59;;;;;;;6.73;6.13;;;39.20;34.80;;;;;;4976928;28;20462;-86
2022/07/28 10:56:44;;;;;;;6.07;5.60;;;39.70;35.20;;;;;;4978527;28;20467;-86
2022/07/28 10:59:26;;;;;;;5.60;5.20;;;40.60;33.40;;;;;;4983024;28;20459;-86
2022/07/28 11:01:52;;;;;;;7.43;5.10;;;39.10;34.20;;;;;;4967854;28;20506;-86
2022/07/28 11:04:51;;;;;;;4.70;4.30;;;37.90;35.30;;;;;;4975054;28;20470;-86
2022/07/28 11:07:19;;;;;;;5.13;4.63;;;38.10;35.60;;;;;;4975821;28;20498;-86
2022/07/28 11:09:48;;;;;;;5.70;5.20;;;37.50;36.00;;;;;;4975427;28;20526;-86
2022/07/28 11:12:15;;;;;;;5.90;5.33;;;37.90;36.40;;;;;;4993578;28;20435;-86
2022/07/28 11:14:42;;;;;;;5.50;5.20;;;37.80;36.10;;;;;;4994563;28;20451;-88
2022/07/28 11:17:15;;;;;;;5.40;4.90;;;37.40;36.70;;;;;;4996469;28;20447;-87
2022/07/28 11:19:56;;;;;;;5.97;5.53;;;38.60;34.90;;;;;;4991594;28;20446;-86
2022/07/28 11:22:27;;;;;;;6.00;5.33;;;37.80;34.80;;;;;;4981106;28;20450;-86
2022/07/28 11:25:15;;;;;;;5.80;5.20;;;36.00;37.90;;;;;;4980266;28;20997;-86
2022/07/28 11:28:02;;;;;;;5.93;5.43;;;35.00;39.60;;;;;;4982626;28;20573;-86
2022/07/28 11:30:54;;;;;;;6.03;5.30;;;34.70;40.40;;;;;;4983822;28;20458;-88
2022/07/28 11:33:23;;;;;;;5.33;4.83;;;35.90;39.10;;;;;;4979364;28;20444;-85
2022/07/28 11:35:58;;;;;;;5.60;5.10;;;35.80;39.00;;;;;;4980030;28;20904;-86
2022/07/28 11:38:26;;;;;;;6.43;5.37;;;35.80;39.10;;;;;;4989338;28;20462;-88
2022/07/28 11:40:56;;;;;;;5.57;5.07;;;35.80;39.20;;;;;;4998902;28;20431;-89
2022/07/28 11:43:30;;;;;;;5.97;5.57;;;35.70;39.00;;;;;;4984216;28;20923;-86
2022/07/28 11:46:24;;;;;;;5.50;5.10;;;35.00;40.00;;;;;;4976315;28;20473;-87
2022/07/28 11:49:23;;;;;;;6.00;5.50;;;34.70;41.70;;;;;;4975266;28;20477;-88
2022/07/28 11:52:20;;;;;;;5.67;5.10;;;36.10;39.20;;;;;;4984178;28;20947;-88
2022/07/28 11:54:55;;;;;;;5.50;5.00;;;35.90;38.70;;;;;;4983786;28;20455;-88
2022/07/28 11:57:25;;;;;;;6.00;5.40;;;35.50;38.80;;;;;;4976131;28;20446;-87
2022/07/28 12:00:02;;;;;;;5.60;5.17;;;34.70;40.40;;;;;;4976025;28;20529;-86
2022/07/28 12:02:30;;;;;;;5.60;5.20;;;34.40;40.40;;;;;;4983182;28;20939;-88
2022/07/28 12:05:05;;;;;;;6.20;5.57;;;34.50;39.90;;;;;;4977687;28;20537;-87
2022/07/28 12:07:38;;;;;;;6.13;5.63;;;34.40;40.20;;;;;;4977150;28;20485;-88
2022/07/28 12:10:27;;;;;;;5.50;5.10;;;33.90;40.90;;;;;;4976321;28;20450;-87
2022/07/28 12:12:57;;;;;;;8.10;5.30;;;32.80;42.40;;;;;;4976078;28;20540;-89
2022/07/28 12:15:24;;;;;;;5.90;5.37;;;32.60;43.00;;;;;;4995361;28;20569;-88
2022/07/28 12:17:51;;;;;;;6.47;4.53;;;34.60;41.10;;;;;;4982129;28;20541;-87
2022/07/28 12:20:18;;;;;;;4.90;4.50;;;36.50;37.70;;;;;;4975484;28;20441;-87
2022/07/28 12:22:59;;;;;;;5.13;4.57;;;37.40;35.70;;;;;;4980618;28;20435;-88
2022/07/28 12:25:26;;;;;;;6.90;4.77;;;37.40;35.50;;;;;;4983883;28;20934;-88
2022/07/28 12:27:54;;;;;;;5.83;4.60;;;37.80;34.70;;;;;;4997376;28;20488;-89
2022/07/28 12:30:23;;;;;;;5.63;5.13;;;37.60;35.30;;;;;;4980698;28;20455;-87
2022/07/28 12:32:50;;;;;;;5.83;5.33;;;37.20;35.60;;;;;;4970203;28;20455;-87
2022/07/28 12:35:17;;;;;;;5.33;4.93;;;35.90;36.80;;;;;;4955448;28;20922;-87
2022/07/28 12:37:46;;;;;;;6.33;5.30;;;34.20;39.30;;;;;;4955669;28;20548;-87
2022/07/28 12:40:14;;;;;;;4.47;4.07;;;33.80;39.30;;;;;;4955982;28;20456;-87
2022/07/28 12:42:41;;;;;;;5.60;5.13;;;33.10;40.00;;;;;;4957461;28;20461;-87
2022/07/28 12:45:11;;;;;;;5.70;5.10;;;32.90;40.70;;;;;;4966810;28;20475;-87
2022/07/28 12:47:38;;;;;;;5.60;5.10;;;32.50;42.30;;;;;;4965760;28;20600;-86
2022/07/28 12:50:12;;;;;;;4.27;3.97;;;32.40;42.10;;;;;;4958940;28;20466;-87
2022/07/28 12:52:39;;;;;;;5.10;4.70;;;32.50;41.50;;;;;;4955872;28;20457;-87
2022/07/28 12:55:21;;;;;;;5.93;5.17;;;32.50;41.60;;;;;;4958578;28;20994;-87
2022/07/28 12:57:50;;;;;;;5.90;5.40;;;32.70;41.20;;;;;;4972069;28;20439;-88